createdAt,value
2023-04-15T00:01:53.057Z,90956.31
2023-04-15T00:04:20.593Z,90961.41
2023-04-15T00:06:53.133Z,90957.94
2023-04-15T00:09:20.942Z,90963.44
2023-04-15T00:11:47.423Z,90961.97
2023-04-15T00:14:13.920Z,90963.44
2023-04-15T00:16:40.803Z,90968.19
2023-04-15T00:19:07.333Z,90960.69
2023-04-15T00:21:34.009Z,90960.53
2023-04-15T00:24:01.173Z,90961.63
2023-04-15T00:26:27.923Z,90965.28
2023-04-15T00:28:54.440Z,90967.28
2023-04-15T00:31:21.064Z,90968.56
2023-04-15T00:33:48.764Z,90964.53
2023-04-15T00:36:15.538Z,90967.09
2023-04-15T00:38:42.090Z,90964.91
2023-04-15T00:41:10.776Z,90968.22
2023-04-15T00:43:37.272Z,90966.03
2023-04-15T00:46:06.024Z,90966.03
2023-04-15T00:48:32.802Z,90965.28
2023-04-15T00:50:59.461Z,90975.50
2023-04-15T00:53:26.050Z,90969.31
2023-04-15T00:55:53.642Z,90966.75
2023-04-15T00:58:20.191Z,90971.88
2023-04-15T01:00:46.976Z,90973.16
2023-04-15T01:03:14.452Z,90980.66
2023-04-15T01:05:41.676Z,90981.38
2023-04-15T01:08:08.294Z,90971.88
2023-04-15T01:10:36.042Z,90974.63
2023-04-15T01:13:03.665Z,90973.69
2023-04-15T01:15:31.341Z,90972.97
2023-04-15T01:17:59.441Z,90976.44
2023-04-15T01:20:26.166Z,90978.44
2023-04-15T01:22:54.570Z,90982.47
2023-04-15T01:25:42.015Z,90985.03
2023-04-15T01:28:09.548Z,90983.59
2023-04-15T01:30:36.184Z,90979.56
2023-04-15T01:33:03.028Z,90983.59
2023-04-15T01:35:29.558Z,90978.81
2023-04-15T01:38:04.308Z,90982.13
2023-04-15T01:40:30.878Z,90971.16
2023-04-15T01:42:57.689Z,90970.97
2023-04-15T01:45:24.206Z,90976.63
2023-04-15T01:47:50.718Z,90968.25
2023-04-15T01:50:17.329Z,90979.19
2023-04-15T01:52:43.819Z,90980.66
2023-04-15T01:55:10.450Z,90979.19
2023-04-15T01:57:37.119Z,90976.31
2023-04-15T02:00:04.025Z,90976.47
2023-04-15T02:02:30.921Z,90976.31
2023-04-15T02:04:58.065Z,90976.31
2023-04-15T02:07:24.774Z,90974.81
2023-04-15T02:09:51.350Z,90978.84
2023-04-15T02:12:17.828Z,90983.59
2023-04-15T02:14:44.293Z,90981.41
2023-04-15T02:17:10.818Z,90981.41
2023-04-15T02:19:37.540Z,90982.69
2023-04-15T02:22:04.105Z,90978.69
2023-04-15T02:24:31.208Z,90979.22
2023-04-15T02:26:57.803Z,90975.56
2023-04-15T02:29:24.508Z,90973.75
2023-04-15T02:34:17.517Z,90981.22
2023-04-15T02:36:44.051Z,90978.50
2023-04-15T02:39:11.297Z,90985.22
2023-04-15T02:41:37.849Z,90992.00
2023-04-15T02:44:04.515Z,90987.25
2023-04-15T02:46:31.467Z,90985.78
2023-04-15T02:49:00.196Z,90987.63
2023-04-15T02:51:32.095Z,90997.13
2023-04-15T02:53:58.623Z,90991.63
2023-04-15T02:56:25.164Z,91001.50
2023-04-15T02:58:51.723Z,90997.47
2023-04-15T03:01:18.318Z,91003.13
2023-04-15T03:03:45.023Z,90999.09
2023-04-15T03:06:11.729Z,91000.41
2023-04-15T03:08:38.237Z,90993.63
2023-04-15T03:11:05.054Z,91000.41
2023-04-15T03:13:31.656Z,91001.84
2023-04-15T03:15:58.156Z,90996.38
2023-04-15T03:18:24.757Z,91000.59
2023-04-15T03:20:51.219Z,91001.84
2023-04-15T03:23:17.812Z,91007.69
2023-04-15T03:25:45.068Z,91002.78
2023-04-15T03:28:11.535Z,91003.31
2023-04-15T03:30:38.042Z,91011.34
2023-04-15T03:33:04.534Z,91009.91
2023-04-15T03:35:31.032Z,91005.16
2023-04-15T03:37:57.507Z,91003.69
2023-04-15T03:40:23.971Z,91010.47
2023-04-15T03:42:50.439Z,91011.00
2023-04-15T03:45:17.031Z,91008.97
2023-04-15T03:47:43.695Z,91002.63
2023-04-15T03:50:10.992Z,91001.88
2023-04-15T03:52:37.676Z,91008.63
2023-04-15T03:55:04.473Z,91004.44
2023-04-15T03:57:31.226Z,91011.34
2023-04-15T03:59:57.737Z,91008.47
2023-04-15T04:02:24.503Z,91004.25
2023-04-15T04:04:51.216Z,91000.78
2023-04-15T04:07:18.363Z,91009.72
2023-04-15T04:09:46.195Z,90999.31
2023-04-15T04:12:13.828Z,91002.63
2023-04-15T04:14:40.330Z,91005.34
2023-04-15T04:17:06.966Z,91005.16
2023-04-15T04:19:33.693Z,91005.00
2023-04-15T04:22:00.423Z,91009.16
2023-04-15T04:24:27.093Z,91010.47
2023-04-15T04:26:53.648Z,91011.00
2023-04-15T04:29:20.181Z,91015.94
2023-04-15T04:31:48.697Z,91017.94
2023-04-15T04:34:16.152Z,91032.53
2023-04-15T04:36:42.736Z,91023.78
2023-04-15T04:39:09.222Z,91029.44
2023-04-15T04:41:35.739Z,91026.69
2023-04-15T04:44:02.516Z,91034.72
2023-04-15T04:46:29.052Z,91037.28
2023-04-15T04:48:55.604Z,91033.09
2023-04-15T04:51:22.171Z,91036.94
2023-04-15T04:53:48.728Z,91034.00
2023-04-15T04:56:15.573Z,91040.56
2023-04-15T04:58:42.442Z,91043.13
2023-04-15T05:01:09.119Z,91044.56
2023-04-15T05:03:35.782Z,91041.66
2023-04-15T05:06:06.139Z,91039.28
2023-04-15T05:08:32.795Z,91035.09
2023-04-15T05:10:59.333Z,91038.38
2023-04-15T05:13:26.185Z,91038.38
2023-04-15T05:15:52.756Z,91035.47
2023-04-15T05:18:19.417Z,91034.16
2023-04-15T05:20:46.270Z,91038.19
2023-04-15T05:23:12.822Z,91035.28
2023-04-15T05:25:39.299Z,91038.00
2023-04-15T05:28:06.087Z,91034.00
2023-04-15T05:30:32.551Z,91029.81
2023-04-15T05:32:59.178Z,91041.28
2023-04-15T05:35:25.772Z,91039.81
2023-04-15T05:37:52.288Z,91050.06
2023-04-15T05:40:18.858Z,91044.59
2023-04-15T05:42:45.620Z,91050.06
2023-04-15T05:45:12.288Z,91051.50
2023-04-15T05:47:38.859Z,91051.50
2023-04-15T05:50:06.591Z,91042.00
2023-04-15T05:52:33.127Z,91047.47
2023-04-15T05:54:59.620Z,91043.09
2023-04-15T05:57:26.349Z,91046.03
2023-04-15T05:59:53.383Z,91042.75
2023-04-15T06:02:19.939Z,91050.41
2023-04-15T06:04:46.614Z,91052.59
2023-04-15T06:07:13.238Z,91050.41
2023-04-15T06:09:39.698Z,91052.94
2023-04-15T06:12:06.893Z,91053.69
2023-04-15T06:14:33.384Z,91056.59
2023-04-15T06:17:00.024Z,91065.38
2023-04-15T06:19:26.513Z,91061.34
2023-04-15T06:21:53.023Z,91057.34
2023-04-15T06:24:19.591Z,91050.03
2023-04-15T06:26:46.264Z,91049.50
2023-04-15T06:29:12.870Z,91052.97
2023-04-15T06:31:39.615Z,91048.00
2023-04-15T06:34:06.286Z,91048.91
2023-04-15T06:36:33.045Z,91054.75
2023-04-15T06:38:59.731Z,91042.91
2023-04-15T06:41:26.384Z,91041.66
2023-04-15T06:43:52.954Z,91043.47
2023-04-15T06:46:19.690Z,91046.59
2023-04-15T06:48:46.353Z,91048.78
2023-04-15T06:51:12.909Z,91042.75
2023-04-15T06:53:41.190Z,91041.66
2023-04-15T06:56:09.645Z,91047.50
2023-04-15T06:58:36.378Z,91031.09
2023-04-15T07:01:04.451Z,91035.25
2023-04-15T07:03:32.745Z,91032.91
2023-04-15T07:05:59.713Z,91028.69
2023-04-15T07:08:26.471Z,91022.34
2023-04-15T07:10:54.146Z,91024.88
2023-04-15T07:13:20.748Z,91015.75
2023-04-15T07:15:47.220Z,91015.00
2023-04-15T07:18:14.040Z,91007.53
2023-04-15T07:20:40.514Z,91006.25
2023-04-15T07:23:07.090Z,91003.69
2023-04-15T07:25:33.622Z,91004.44
2023-04-15T07:28:00.349Z,90999.66
2023-04-15T07:30:26.843Z,90998.41
2023-04-15T07:32:53.364Z,90993.13
2023-04-15T07:35:21.429Z,90996.03
2023-04-15T07:37:48.560Z,90988.72
2023-04-15T07:40:16.199Z,90989.63
2023-04-15T07:42:43.507Z,90984.34
2023-04-15T07:45:10.465Z,90982.84
2023-04-15T07:47:37.116Z,90985.03
2023-04-15T07:50:03.881Z,90970.81
2023-04-15T07:52:30.414Z,90967.53
2023-04-15T07:54:56.910Z,90964.22
2023-04-15T07:57:23.383Z,90958.75
2023-04-15T07:59:49.913Z,90960.22
2023-04-15T08:02:16.611Z,90947.81
2023-04-15T08:04:43.521Z,90953.09
2023-04-15T08:07:10.392Z,90944.88
2023-04-15T08:09:37.044Z,90943.44
2023-04-15T08:12:03.784Z,90946.00
2023-04-15T08:14:30.323Z,90948.19
2023-04-15T08:16:57.176Z,90943.25
2023-04-15T08:19:24.248Z,90947.09
2023-04-15T08:21:52.066Z,90939.44
2023-04-15T08:24:21.155Z,90939.16
2023-04-15T08:26:47.787Z,90933.31
2023-04-15T08:29:14.366Z,90928.41
2023-04-15T08:31:41.038Z,90929.69
2023-04-15T08:34:07.598Z,90932.59
2023-04-15T08:36:34.117Z,90926.91
2023-04-15T08:39:02.204Z,90924.91
2023-04-15T08:41:35.777Z,90913.22
2023-04-15T08:44:05.741Z,90907.00
2023-04-15T08:46:36.589Z,90913.19
2023-04-15T08:49:10.283Z,90914.66
2023-04-15T08:51:36.860Z,90907.72
2023-04-15T08:54:04.453Z,90900.41
2023-04-15T08:56:35.569Z,90897.69
2023-04-15T08:59:02.428Z,90895.69
2023-04-15T09:01:29.388Z,90889.47
2023-04-15T09:03:57.228Z,90888.34
2023-04-15T09:06:26.512Z,90874.84
2023-04-15T09:08:53.054Z,90870.47
2023-04-15T09:11:21.627Z,90867.88
2023-04-15T09:13:48.910Z,90870.09
2023-04-15T09:16:15.691Z,90855.09
2023-04-15T09:18:42.271Z,90851.06
2023-04-15T09:21:09.062Z,90849.63
2023-04-15T09:23:36.511Z,90849.81
2023-04-15T09:26:03.746Z,90848.50
2023-04-15T09:28:30.939Z,90847.44
2023-04-15T09:31:01.257Z,90845.00
2023-04-15T09:33:30.030Z,90839.38
2023-04-15T09:36:05.123Z,90842.44
2023-04-15T09:38:32.669Z,90844.25
2023-04-15T09:40:59.594Z,90837.84
2023-04-15T09:43:52.735Z,90835.28
2023-04-15T09:46:19.358Z,90836.75
2023-04-15T09:48:46.114Z,90833.44
2023-04-15T09:51:12.720Z,90818.47
2023-04-15T09:53:39.255Z,90826.13
2023-04-15T09:56:07.938Z,90823.41
2023-04-15T09:58:35.570Z,90812.63
2023-04-15T10:01:05.112Z,90810.75
2023-04-15T10:03:36.217Z,90810.19
2023-04-15T10:06:06.183Z,90810.38
2023-04-15T10:08:34.895Z,90807.81
2023-04-15T10:11:05.631Z,90810.72
2023-04-15T10:13:37.243Z,90805.25
2023-04-15T10:16:16.179Z,90805.59
2023-04-15T10:18:44.994Z,90803.03
2023-04-15T10:21:13.842Z,90804.47
2023-04-15T10:23:40.882Z,90794.94
2023-04-15T10:26:08.262Z,90797.16
2023-04-15T10:28:34.882Z,90802.06
2023-04-15T10:31:01.795Z,90805.50
2023-04-15T10:33:29.987Z,90792.00
2023-04-15T10:35:56.958Z,90797.47
2023-04-15T10:38:41.737Z,90784.50
2023-04-15T10:41:17.060Z,90783.94
2023-04-15T10:43:59.499Z,90777.91
2023-04-15T10:46:38.123Z,90778.47
2023-04-15T10:49:16.342Z,90779.53
2023-04-15T10:51:53.360Z,90780.97
2023-04-15T10:54:25.804Z,90782.41
2023-04-15T10:57:09.002Z,90779.84
2023-04-15T10:59:59.198Z,90777.31
2023-04-15T11:02:44.666Z,90775.09
2023-04-15T11:05:12.628Z,90778.78
2023-04-15T11:07:46.689Z,90783.13
2023-04-15T11:10:25.574Z,90780.56
2023-04-15T11:12:53.960Z,90771.03
2023-04-15T11:15:37.868Z,90775.56
2023-04-15T11:18:22.406Z,90782.69
2023-04-15T11:20:51.701Z,90781.38
2023-04-15T11:23:19.890Z,90778.81
2023-04-15T11:25:46.544Z,90789.94
2023-04-15T11:28:13.815Z,90781.16
2023-04-15T11:30:42.349Z,90784.06
2023-04-15T11:33:12.234Z,90782.78
2023-04-15T11:35:40.991Z,90782.22
2023-04-15T11:38:12.502Z,90785.13
2023-04-15T11:40:40.314Z,90779.63
2023-04-15T11:43:23.048Z,90783.09
2023-04-15T11:46:03.516Z,90790.59
2023-04-15T11:48:33.042Z,90791.34
2023-04-15T11:51:01.894Z,90788.59
2023-04-15T11:53:42.142Z,90793.50
2023-04-15T11:56:09.958Z,90793.50
2023-04-15T11:58:38.254Z,90790.78
2023-04-15T12:01:06.657Z,90794.81
2023-04-15T12:03:43.911Z,90801.91
2023-04-15T12:06:21.971Z,90799.16
2023-04-15T12:08:52.866Z,90797.91
2023-04-15T12:11:49.531Z,90803.38
2023-04-15T12:14:15.966Z,90799.34
2023-04-15T12:16:48.288Z,90801.91
2023-04-15T12:19:18.667Z,90810.31
2023-04-15T12:21:47.824Z,90814.19
2023-04-15T12:24:14.535Z,90808.84
2023-04-15T12:26:57.319Z,90818.53
2023-04-15T12:29:29.912Z,90817.97
2023-04-15T12:32:04.924Z,90818.69
2023-04-15T12:34:36.406Z,90816.69
2023-04-15T12:37:04.633Z,90814.66
2023-04-15T12:39:41.595Z,90825.63
2023-04-15T12:42:09.230Z,90827.09
2023-04-15T12:44:37.023Z,90828.53
2023-04-15T12:47:04.287Z,90835.50
2023-04-15T12:49:32.525Z,90842.41
2023-04-15T12:52:00.872Z,90835.50
2023-04-15T12:54:28.557Z,90838.56
2023-04-15T12:56:55.635Z,90837.28
2023-04-15T12:59:24.125Z,90855.19
2023-04-15T13:01:52.378Z,90858.09
2023-04-15T13:04:20.241Z,90851.88
2023-04-15T13:06:46.899Z,90863.41
2023-04-15T13:09:13.457Z,90855.00
2023-04-15T13:11:40.091Z,90870.19
2023-04-15T13:14:08.991Z,90873.50
2023-04-15T13:16:35.717Z,90882.28
2023-04-15T13:19:03.566Z,90869.84
2023-04-15T13:21:32.280Z,90878.63
2023-04-15T13:23:59.390Z,90871.31
2023-04-15T13:26:25.928Z,90883.72
2023-04-15T13:28:52.433Z,90887.91
2023-04-15T13:31:18.979Z,90892.13
2023-04-15T13:33:45.456Z,90879.69
2023-04-15T13:36:12.055Z,90887.91
2023-04-15T13:38:38.693Z,90892.88
2023-04-15T13:41:05.217Z,90884.06
2023-04-15T13:43:33.668Z,90892.47
2023-04-15T13:46:00.657Z,90878.19
2023-04-15T13:48:28.818Z,90884.38
2023-04-15T13:50:55.608Z,90885.84
2023-04-15T13:53:37.597Z,90888.03
2023-04-15T13:56:05.948Z,90895.53
2023-04-15T13:58:32.578Z,90891.34
2023-04-15T14:00:59.072Z,90893.19
2023-04-15T14:03:26.279Z,90899.41
2023-04-15T14:05:56.089Z,90901.97
2023-04-15T14:08:23.099Z,90907.47
2023-04-15T14:10:49.683Z,90901.97
2023-04-15T14:13:16.293Z,90903.97
2023-04-15T14:15:42.882Z,90919.91
2023-04-15T14:18:09.890Z,90917.00
2023-04-15T14:20:36.407Z,90915.53
2023-04-15T14:23:02.936Z,90914.06
2023-04-15T14:25:33.705Z,90925.03
2023-04-15T14:28:01.306Z,90930.53
2023-04-15T14:30:27.865Z,90934.53
2023-04-15T14:32:54.483Z,90935.69
2023-04-15T14:35:21.251Z,90938.59
2023-04-15T14:37:47.779Z,90946.81
2023-04-15T14:40:14.273Z,90949.56
2023-04-15T14:42:40.835Z,90952.31
2023-04-15T14:45:07.969Z,90960.53
2023-04-15T14:47:34.556Z,90951.75
2023-04-15T14:50:01.179Z,90960.88
2023-04-15T14:52:27.860Z,90960.88
2023-04-15T14:54:54.326Z,90966.69
2023-04-15T14:57:20.900Z,90970.34
2023-04-15T14:59:47.409Z,90965.59
2023-04-15T15:02:17.262Z,90968.50
2023-04-15T15:04:53.079Z,90974.00
2023-04-15T15:07:19.772Z,90975.44
2023-04-15T15:09:46.258Z,90975.44
2023-04-15T15:12:12.818Z,90980.75
2023-04-15T15:14:39.299Z,90984.97
2023-04-15T15:17:06.139Z,90984.78
2023-04-15T15:19:33.105Z,90991.38
2023-04-15T15:21:59.615Z,90992.66
2023-04-15T15:24:26.198Z,90998.16
2023-04-15T15:26:52.750Z,90999.59
2023-04-15T15:29:19.284Z,90999.28
2023-04-15T15:31:45.941Z,91007.69
2023-04-15T15:34:12.504Z,91004.00
2023-04-15T15:36:39.069Z,91006.56
2023-04-15T15:39:05.857Z,91009.31
2023-04-15T15:41:33.382Z,91006.56
2023-04-15T15:44:00.056Z,91019.38
2023-04-15T15:46:28.092Z,91019.38
2023-04-15T15:48:54.942Z,91026.88
2023-04-15T15:51:21.405Z,91024.69
2023-04-15T15:53:47.963Z,91025.25
2023-04-15T15:56:14.553Z,91033.28
2023-04-15T15:58:41.969Z,91037.50
2023-04-15T16:01:08.651Z,91044.25
2023-04-15T16:03:35.513Z,91051.59
2023-04-15T16:06:02.114Z,91063.31
2023-04-15T16:08:28.607Z,91053.63
2023-04-15T16:10:55.407Z,91050.13
2023-04-15T16:13:23.205Z,91049.44
2023-04-15T16:15:52.826Z,91061.84
2023-04-15T16:18:19.406Z,91063.31
2023-04-15T16:20:45.942Z,91066.06
2023-04-15T16:23:15.779Z,91075.56
2023-04-15T16:25:43.961Z,91072.06
2023-04-15T16:28:22.512Z,91072.44
2023-04-15T16:30:52.653Z,91080.69
2023-04-15T16:33:19.280Z,91076.50
2023-04-15T16:35:45.881Z,91084.72
2023-04-15T16:38:12.454Z,91092.22
2023-04-15T16:40:38.994Z,91099.00
2023-04-15T16:43:07.471Z,91095.50
2023-04-15T16:45:34.093Z,91109.78
2023-04-15T16:48:00.674Z,91108.31
2023-04-15T16:50:27.341Z,91107.03
2023-04-15T16:52:54.428Z,91113.25
2023-04-15T16:55:21.005Z,91121.50
2023-04-15T16:58:01.000Z,91114.53
2023-04-15T17:00:29.734Z,91116.00
2023-04-15T17:02:56.547Z,91121.50
2023-04-15T17:05:23.160Z,91128.81
2023-04-15T17:07:49.658Z,91131.00
2023-04-15T17:10:16.458Z,91127.34
2023-04-15T17:12:43.102Z,91141.59
2023-04-15T17:15:10.162Z,91132.09
2023-04-15T17:17:36.645Z,91143.06
2023-04-15T17:20:03.763Z,91148.19
2023-04-15T17:22:30.236Z,91146.94
2023-04-15T17:24:56.764Z,91149.81
2023-04-15T17:27:23.248Z,91162.09
2023-04-15T17:29:49.764Z,91171.22
2023-04-15T17:32:16.302Z,91175.97
2023-04-15T17:34:49.714Z,91170.31
2023-04-15T17:37:17.896Z,91178.91
2023-04-15T17:39:44.443Z,91178.72
2023-04-15T17:42:11.486Z,91189.88
2023-04-15T17:44:38.022Z,91186.94
2023-04-15T17:47:04.787Z,91188.41
2023-04-15T17:49:32.685Z,91202.09
2023-04-15T17:51:59.347Z,91207.03
2023-04-15T17:54:25.878Z,91202.09
2023-04-15T17:56:52.417Z,91213.25
2023-04-15T17:59:19.179Z,91215.44
2023-04-15T18:01:45.769Z,91224.97
2023-04-15T18:04:12.690Z,91226.78
2023-04-15T18:06:39.479Z,91237.75
2023-04-15T18:09:06.816Z,91234.31
2023-04-15T18:11:33.538Z,91236.13
2023-04-15T18:14:02.278Z,91240.16
2023-04-15T18:16:28.867Z,91244.53
2023-04-15T18:18:55.677Z,91247.28
2023-04-15T18:21:22.199Z,91252.41
2023-04-15T18:23:48.689Z,91257.50
2023-04-15T18:26:15.653Z,91269.22
2023-04-15T18:28:42.224Z,91265.91
2023-04-15T18:31:08.780Z,91268.47
2023-04-15T18:33:35.990Z,91275.41
2023-04-15T18:36:02.678Z,91284.38
2023-04-15T18:38:29.260Z,91293.72
2023-04-15T18:40:56.069Z,91302.50
2023-04-15T18:43:22.594Z,91302.50
2023-04-15T18:45:49.273Z,91306.50
2023-04-15T18:48:16.040Z,91321.50
2023-04-15T18:50:43.136Z,91317.47
2023-04-15T18:53:09.748Z,91327.00
2023-04-15T18:55:36.303Z,91324.81
2023-04-15T18:58:06.567Z,91339.06
2023-04-15T19:00:38.991Z,91345.28
2023-04-15T19:03:06.436Z,91349.28
2023-04-15T19:05:33.680Z,91350.38
2023-04-15T19:08:00.537Z,91354.59
2023-04-15T19:10:28.174Z,91358.63
2023-04-15T19:12:55.433Z,91362.84
2023-04-15T19:15:22.297Z,91368.31
2023-04-15T19:17:48.857Z,91375.25
2023-04-15T19:20:15.530Z,91383.31
2023-04-15T19:22:43.160Z,91383.31
2023-04-15T19:25:10.044Z,91387.34
2023-04-15T19:27:38.190Z,91388.78
2023-04-15T19:30:06.516Z,91382.56
2023-04-15T19:32:33.181Z,91384.41
2023-04-15T19:34:59.798Z,91384.41
2023-04-15T19:37:26.318Z,91388.59
2023-04-15T19:39:54.667Z,91390.63
2023-04-15T19:42:21.433Z,91398.66
2023-04-15T19:44:47.921Z,91402.13
2023-04-15T19:47:14.499Z,91400.66
2023-04-15T19:49:41.026Z,91404.16
2023-04-15T19:52:07.500Z,91404.16
2023-04-15T19:54:34.038Z,91414.38
2023-04-15T19:57:02.088Z,91418.41
2023-04-15T19:59:28.566Z,91428.63
2023-04-15T20:01:54.998Z,91415.47
2023-04-15T20:04:22.692Z,91427.91
2023-04-15T20:06:49.932Z,91430.84
2023-04-15T20:09:16.630Z,91438.88
2023-04-15T20:12:46.867Z,91431.94
2023-04-15T20:14:29.952Z,91437.41
2023-04-15T20:16:56.931Z,91438.13
2023-04-15T20:19:23.535Z,91448.38
2023-04-15T20:21:52.441Z,91453.88
2023-04-15T20:24:20.230Z,91460.44
2023-04-15T20:26:47.033Z,91457.16
2023-04-15T20:29:14.012Z,91459.34
2023-04-15T20:31:40.757Z,91462.09
2023-04-15T20:34:08.839Z,91460.06
2023-04-15T20:36:37.221Z,91460.44
2023-04-15T20:39:04.093Z,91464.84
2023-04-15T20:41:30.936Z,91464.84
2023-04-15T20:43:57.487Z,91466.28
2023-04-15T20:46:26.573Z,91467.38
2023-04-15T20:48:54.010Z,91476.53
2023-04-15T20:51:20.586Z,91474.31
2023-04-15T20:53:47.158Z,91479.81
2023-04-15T20:56:13.662Z,91479.81
2023-04-15T20:58:40.186Z,91479.81
2023-04-15T21:01:06.788Z,91470.13
2023-04-15T21:03:33.599Z,91477.63
2023-04-15T21:06:00.327Z,91477.06
2023-04-15T21:08:29.680Z,91476.88
2023-04-15T21:10:56.951Z,91475.63
2023-04-15T21:13:23.970Z,91478.34
2023-04-15T21:15:53.421Z,91478.34
2023-04-15T21:18:21.388Z,91478.34
2023-04-15T21:20:59.204Z,91479.09
2023-04-15T21:23:28.596Z,91480.91
2023-04-15T21:25:58.640Z,91479.81
2023-04-15T21:28:27.901Z,91489.31
2023-04-15T21:30:54.392Z,91493.34
2023-04-15T21:33:20.903Z,91495.34
2023-04-15T21:35:47.661Z,91495.91
2023-04-15T21:38:14.421Z,91494.63
2023-04-15T21:40:40.992Z,91502.09
2023-04-15T21:43:08.290Z,91509.06
2023-04-15T21:45:35.966Z,91510.88
2023-04-15T21:48:08.215Z,91518.56
2023-04-15T21:50:37.933Z,91510.13
2023-04-15T21:53:07.594Z,91526.06
2023-04-15T21:55:34.266Z,91520.75
2023-04-15T21:58:00.723Z,91520.75
2023-04-15T22:00:27.420Z,91522.25
2023-04-15T22:02:54.020Z,91525.16
2023-04-15T22:05:20.627Z,91525.16
2023-04-15T22:07:47.149Z,91523.88
2023-04-15T22:10:13.671Z,91528.09
2023-04-15T22:12:41.915Z,91531.75
2023-04-15T22:15:08.766Z,91525.53
2023-04-15T22:17:35.404Z,91524.81
2023-04-15T22:20:02.162Z,91537.25
2023-04-15T22:22:44.225Z,91535.78
2023-04-15T22:25:11.855Z,91535.78
2023-04-15T22:27:38.457Z,91533.59
2023-04-15T22:30:05.651Z,91543.09
2023-04-15T22:32:32.207Z,91538.88
2023-04-15T22:34:58.722Z,91547.09
2023-04-15T22:37:25.256Z,91538.16
2023-04-15T22:39:51.948Z,91542.19
2023-04-15T22:42:18.487Z,91542.88
2023-04-15T22:44:45.010Z,91545.63
2023-04-15T22:47:11.520Z,91549.66
2023-04-15T22:49:38.027Z,91551.47
2023-04-15T22:52:04.707Z,91552.22
2023-04-15T22:54:31.283Z,91553.66
2023-04-15T22:56:58.065Z,91550.91
2023-04-15T22:59:24.620Z,91555.16
2023-04-15T23:01:51.436Z,91552.94
2023-04-15T23:04:25.669Z,91554.41
2023-04-15T23:06:52.783Z,91556.94
2023-04-15T23:09:19.314Z,91560.44
2023-04-15T23:11:47.011Z,91562.97
2023-04-15T23:14:13.483Z,91565.72
2023-04-15T23:16:40.078Z,91562.97
2023-04-15T23:19:06.654Z,91568.66
2023-04-15T23:21:33.342Z,91563.19
2023-04-15T23:23:59.818Z,91565.72
2023-04-15T23:26:27.339Z,91562.78
2023-04-15T23:28:53.904Z,91569.75
2023-04-15T23:31:20.535Z,91573.00
2023-04-15T23:33:47.101Z,91569.34
2023-04-15T23:36:13.612Z,91570.81
2023-04-15T23:38:40.094Z,91573.56
2023-04-15T23:41:06.927Z,91565.34
2023-04-15T23:43:33.566Z,91566.81
2023-04-15T23:46:00.056Z,91577.78
2023-04-15T23:48:26.569Z,91572.28
2023-04-15T23:50:53.049Z,91576.31
2023-04-15T23:53:19.570Z,91575.03
2023-04-15T23:55:46.121Z,91577.22
2023-04-15T23:58:12.624Z,91575.03
